sensor_id;sensor_type;location;lat;lon;timestamp;P1;durP1;ratioP1;P2;durP2;ratioP2
23561;SDS011;11959;49.418;8.728;2022-09-28T00:01:05;2.63;;;0.82;;
23561;SDS011;11959;49.418;8.728;2022-09-28T00:03:45;2.53;;;1.02;;
23561;SDS011;11959;49.418;8.728;2022-09-28T00:06:12;2.47;;;1.05;;
23561;SDS011;11959;49.418;8.728;2022-09-28T00:08:40;2.30;;;1.10;;
23561;SDS011;11959;49.418;8.728;2022-09-28T00:11:06;3.60;;;1.05;;
23561;SDS011;11959;49.418;8.728;2022-09-28T00:13:36;3.28;;;1.00;;
23561;SDS011;11959;49.418;8.728;2022-09-28T00:16:02;2.47;;;1.10;;
23561;SDS011;11959;49.418;8.728;2022-09-28T00:18:30;1.75;;;1.00;;
23561;SDS011;11959;49.418;8.728;2022-09-28T00:21:15;2.30;;;0.88;;
23561;SDS011;11959;49.418;8.728;2022-09-28T00:23:44;1.88;;;1.08;;
23561;SDS011;11959;49.418;8.728;2022-09-28T00:26:29;3.20;;;0.80;;
23561;SDS011;11959;49.418;8.728;2022-09-28T00:28:58;1.80;;;1.00;;
23561;SDS011;11959;49.418;8.728;2022-09-28T00:31:29;2.22;;;1.10;;
23561;SDS011;11959;49.418;8.728;2022-09-28T00:33:58;2.73;;;0.80;;
23561;SDS011;11959;49.418;8.728;2022-09-28T00:36:26;3.85;;;1.00;;
23561;SDS011;11959;49.418;8.728;2022-09-28T00:38:54;3.20;;;1.17;;
23561;SDS011;11959;49.418;8.728;2022-09-28T00:41:23;2.25;;;1.20;;
23561;SDS011;11959;49.418;8.728;2022-09-28T00:43:50;1.55;;;0.85;;
23561;SDS011;11959;49.418;8.728;2022-09-28T00:48:57;2.75;;;0.90;;
23561;SDS011;11959;49.418;8.728;2022-09-28T00:51:31;2.05;;;1.23;;
23561;SDS011;11959;49.418;8.728;2022-09-28T00:53:59;2.38;;;1.30;;
23561;SDS011;11959;49.418;8.728;2022-09-28T00:56:28;2.20;;;1.30;;
23561;SDS011;11959;49.418;8.728;2022-09-28T00:58:57;3.65;;;1.50;;
23561;SDS011;11959;49.418;8.728;2022-09-28T01:01:25;2.28;;;1.50;;
23561;SDS011;11959;49.418;8.728;2022-09-28T01:03:52;4.50;;;1.25;;
23561;SDS011;11959;49.418;8.728;2022-09-28T01:06:22;3.05;;;1.17;;
23561;SDS011;11959;49.418;8.728;2022-09-28T01:08:52;4.40;;;1.60;;
23561;SDS011;11959;49.418;8.728;2022-09-28T01:11:19;5.22;;;1.70;;
23561;SDS011;11959;49.418;8.728;2022-09-28T01:13:45;4.25;;;1.85;;
23561;SDS011;11959;49.418;8.728;2022-09-28T01:16:30;5.47;;;1.88;;
23561;SDS011;11959;49.418;8.728;2022-09-28T01:30:16;2.05;;;1.45;;
23561;SDS011;11959;49.418;8.728;2022-09-28T01:32:49;2.55;;;1.50;;
23561;SDS011;11959;49.418;8.728;2022-09-28T01:35:35;3.05;;;1.17;;
23561;SDS011;11959;49.418;8.728;2022-09-28T01:38:05;1.92;;;1.17;;
23561;SDS011;11959;49.418;8.728;2022-09-28T01:40:38;1.92;;;0.95;;
23561;SDS011;11959;49.418;8.728;2022-09-28T01:51:18;3.40;;;1.40;;
23561;SDS011;11959;49.418;8.728;2022-09-28T01:53:52;3.75;;;1.50;;
23561;SDS011;11959;49.418;8.728;2022-09-28T01:56:24;1.98;;;1.40;;
23561;SDS011;11959;49.418;8.728;2022-09-28T01:59:02;2.95;;;1.40;;
23561;SDS011;11959;49.418;8.728;2022-09-28T02:04:03;4.00;;;1.80;;
23561;SDS011;11959;49.418;8.728;2022-09-28T02:06:56;1.83;;;1.40;;
23561;SDS011;11959;49.418;8.728;2022-09-28T02:09:31;3.10;;;1.65;;
23561;SDS011;11959;49.418;8.728;2022-09-28T02:12:04;3.92;;;1.50;;
23561;SDS011;11959;49.418;8.728;2022-09-28T02:14:35;3.53;;;1.50;;
23561;SDS011;11959;49.418;8.728;2022-09-28T02:17:03;1.85;;;1.25;;
23561;SDS011;11959;49.418;8.728;2022-09-28T02:19:29;4.18;;;1.60;;
23561;SDS011;11959;49.418;8.728;2022-09-28T02:24:34;3.97;;;1.67;;
23561;SDS011;11959;49.418;8.728;2022-09-28T02:27:07;2.88;;;1.25;;
23561;SDS011;11959;49.418;8.728;2022-09-28T02:30:05;3.45;;;1.38;;
23561;SDS011;11959;49.418;8.728;2022-09-28T02:32:33;2.47;;;1.33;;
23561;SDS011;11959;49.418;8.728;2022-09-28T02:35:05;4.57;;;1.40;;
23561;SDS011;11959;49.418;8.728;2022-09-28T02:37:35;2.45;;;1.13;;
23561;SDS011;11959;49.418;8.728;2022-09-28T02:40:01;3.45;;;1.60;;
23561;SDS011;11959;49.418;8.728;2022-09-28T02:42:37;2.65;;;1.13;;
23561;SDS011;11959;49.418;8.728;2022-09-28T02:45:18;3.70;;;1.10;;
23561;SDS011;11959;49.418;8.728;2022-09-28T02:51:14;2.97;;;1.20;;
23561;SDS011;11959;49.418;8.728;2022-09-28T03:01:23;1.92;;;0.80;;
23561;SDS011;11959;49.418;8.728;2022-09-28T03:06:52;1.08;;;0.60;;
23561;SDS011;11959;49.418;8.728;2022-09-28T03:09:32;2.92;;;1.00;;
23561;SDS011;11959;49.418;8.728;2022-09-28T03:12:10;1.80;;;0.65;;
23561;SDS011;11959;49.418;8.728;2022-09-28T03:14:39;0.97;;;0.67;;
23561;SDS011;11959;49.418;8.728;2022-09-28T03:17:05;2.00;;;0.57;;
23561;SDS011;11959;49.418;8.728;2022-09-28T03:19:31;1.17;;;0.65;;
23561;SDS011;11959;49.418;8.728;2022-09-28T03:21:58;1.15;;;0.70;;
23561;SDS011;11959;49.418;8.728;2022-09-28T03:24:24;2.85;;;0.57;;
23561;SDS011;11959;49.418;8.728;2022-09-28T03:26:50;1.55;;;0.50;;
23561;SDS011;11959;49.418;8.728;2022-09-28T03:29:16;0.85;;;0.40;;
23561;SDS011;11959;49.418;8.728;2022-09-28T03:31:41;1.25;;;0.40;;
23561;SDS011;11959;49.418;8.728;2022-09-28T03:34:08;1.25;;;0.50;;
23561;SDS011;11959;49.418;8.728;2022-09-28T03:36:34;0.40;;;0.30;;
23561;SDS011;11959;49.418;8.728;2022-09-28T03:38:59;0.80;;;0.38;;
23561;SDS011;11959;49.418;8.728;2022-09-28T03:41:25;1.48;;;0.60;;
23561;SDS011;11959;49.418;8.728;2022-09-28T03:43:54;1.98;;;0.75;;
23561;SDS011;11959;49.418;8.728;2022-09-28T03:46:19;2.53;;;0.90;;
23561;SDS011;11959;49.418;8.728;2022-09-28T03:48:45;2.47;;;0.90;;
23561;SDS011;11959;49.418;8.728;2022-09-28T03:51:11;1.98;;;1.02;;
23561;SDS011;11959;49.418;8.728;2022-09-28T03:53:37;1.27;;;0.85;;
23561;SDS011;11959;49.418;8.728;2022-09-28T03:56:13;3.83;;;0.80;;
23561;SDS011;11959;49.418;8.728;2022-09-28T03:58:39;2.15;;;0.77;;
23561;SDS011;11959;49.418;8.728;2022-09-28T04:01:06;2.83;;;0.82;;
23561;SDS011;11959;49.418;8.728;2022-09-28T04:03:35;3.63;;;0.90;;
23561;SDS011;11959;49.418;8.728;2022-09-28T04:06:00;4.05;;;0.90;;
23561;SDS011;11959;49.418;8.728;2022-09-28T04:08:26;1.33;;;0.77;;
23561;SDS011;11959;49.418;8.728;2022-09-28T04:10:54;1.45;;;0.80;;
23561;SDS011;11959;49.418;8.728;2022-09-28T04:13:21;1.95;;;0.85;;
23561;SDS011;11959;49.418;8.728;2022-09-28T04:15:51;2.92;;;0.90;;
23561;SDS011;11959;49.418;8.728;2022-09-28T04:18:18;2.58;;;1.23;;
23561;SDS011;11959;49.418;8.728;2022-09-28T04:20:44;1.58;;;0.98;;
23561;SDS011;11959;49.418;8.728;2022-09-28T04:23:12;2.78;;;0.95;;
23561;SDS011;11959;49.418;8.728;2022-09-28T04:25:38;1.27;;;0.90;;
23561;SDS011;11959;49.418;8.728;2022-09-28T04:28:04;2.80;;;1.00;;
23561;SDS011;11959;49.418;8.728;2022-09-28T04:30:48;6.00;;;1.30;;
23561;SDS011;11959;49.418;8.728;2022-09-28T04:33:13;2.65;;;1.10;;
23561;SDS011;11959;49.418;8.728;2022-09-28T04:35:39;3.78;;;1.42;;
23561;SDS011;11959;49.418;8.728;2022-09-28T04:38:05;3.50;;;1.08;;
23561;SDS011;11959;49.418;8.728;2022-09-28T04:40:30;4.00;;;1.70;;
23561;SDS011;11959;49.418;8.728;2022-09-28T04:42:56;2.45;;;1.48;;
23561;SDS011;11959;49.418;8.728;2022-09-28T04:45:22;1.83;;;1.10;;
23561;SDS011;11959;49.418;8.728;2022-09-28T04:47:50;2.53;;;1.30;;
23561;SDS011;11959;49.418;8.728;2022-09-28T04:50:16;4.00;;;1.42;;
23561;SDS011;11959;49.418;8.728;2022-09-28T04:52:41;3.15;;;1.30;;
23561;SDS011;11959;49.418;8.728;2022-09-28T04:55:08;2.38;;;1.40;;
23561;SDS011;11959;49.418;8.728;2022-09-28T04:57:37;3.50;;;1.27;;
23561;SDS011;11959;49.418;8.728;2022-09-28T05:00:03;3.72;;;1.35;;
23561;SDS011;11959;49.418;8.728;2022-09-28T05:02:29;2.95;;;1.50;;
23561;SDS011;11959;49.418;8.728;2022-09-28T05:04:55;2.15;;;1.33;;
23561;SDS011;11959;49.418;8.728;2022-09-28T05:07:22;1.85;;;1.35;;
23561;SDS011;11959;49.418;8.728;2022-09-28T05:09:48;2.83;;;1.48;;
23561;SDS011;11959;49.418;8.728;2022-09-28T05:12:14;6.47;;;1.65;;
23561;SDS011;11959;49.418;8.728;2022-09-28T05:14:40;3.22;;;1.52;;
23561;SDS011;11959;49.418;8.728;2022-09-28T05:17:06;3.17;;;1.48;;
23561;SDS011;11959;49.418;8.728;2022-09-28T05:19:33;4.53;;;1.70;;
23561;SDS011;11959;49.418;8.728;2022-09-28T05:21:59;5.40;;;1.80;;
23561;SDS011;11959;49.418;8.728;2022-09-28T05:24:28;3.22;;;1.52;;
23561;SDS011;11959;49.418;8.728;2022-09-28T05:26:54;3.67;;;1.35;;
23561;SDS011;11959;49.418;8.728;2022-09-28T05:29:20;3.08;;;1.58;;
23561;SDS011;11959;49.418;8.728;2022-09-28T05:31:45;2.63;;;1.60;;
23561;SDS011;11959;49.418;8.728;2022-09-28T05:34:11;3.20;;;1.70;;
23561;SDS011;11959;49.418;8.728;2022-09-28T05:36:37;4.85;;;1.70;;
23561;SDS011;11959;49.418;8.728;2022-09-28T05:39:04;2.85;;;1.48;;
23561;SDS011;11959;49.418;8.728;2022-09-28T05:41:30;4.63;;;1.70;;
23561;SDS011;11959;49.418;8.728;2022-09-28T05:43:56;3.35;;;1.70;;
23561;SDS011;11959;49.418;8.728;2022-09-28T05:46:22;3.63;;;1.40;;
23561;SDS011;11959;49.418;8.728;2022-09-28T05:48:47;3.17;;;1.50;;
23561;SDS011;11959;49.418;8.728;2022-09-28T05:51:15;3.53;;;1.70;;
23561;SDS011;11959;49.418;8.728;2022-09-28T05:53:40;7.60;;;2.00;;
23561;SDS011;11959;49.418;8.728;2022-09-28T05:56:06;4.35;;;1.60;;
23561;SDS011;11959;49.418;8.728;2022-09-28T05:58:32;4.47;;;1.60;;
23561;SDS011;11959;49.418;8.728;2022-09-28T06:00:57;3.97;;;1.92;;
23561;SDS011;11959;49.418;8.728;2022-09-28T06:03:23;3.45;;;2.00;;
23561;SDS011;11959;49.418;8.728;2022-09-28T06:05:49;4.50;;;1.90;;
23561;SDS011;11959;49.418;8.728;2022-09-28T06:08:15;4.95;;;2.13;;
23561;SDS011;11959;49.418;8.728;2022-09-28T06:10:40;4.43;;;2.20;;
23561;SDS011;11959;49.418;8.728;2022-09-28T06:13:07;4.22;;;2.13;;
23561;SDS011;11959;49.418;8.728;2022-09-28T06:15:34;6.50;;;2.35;;
23561;SDS011;11959;49.418;8.728;2022-09-28T06:18:10;4.15;;;2.20;;
23561;SDS011;11959;49.418;8.728;2022-09-28T06:20:39;4.72;;;2.22;;
23561;SDS011;11959;49.418;8.728;2022-09-28T06:23:08;5.47;;;2.58;;
23561;SDS011;11959;49.418;8.728;2022-09-28T06:25:34;4.95;;;2.58;;
23561;SDS011;11959;49.418;8.728;2022-09-28T06:28:01;6.00;;;3.13;;
23561;SDS011;11959;49.418;8.728;2022-09-28T06:30:38;6.35;;;2.80;;
23561;SDS011;11959;49.418;8.728;2022-09-28T06:33:05;6.15;;;2.72;;
23561;SDS011;11959;49.418;8.728;2022-09-28T06:35:32;6.85;;;3.20;;
23561;SDS011;11959;49.418;8.728;2022-09-28T06:37:58;5.78;;;3.20;;
23561;SDS011;11959;49.418;8.728;2022-09-28T06:40:25;5.47;;;2.45;;
23561;SDS011;11959;49.418;8.728;2022-09-28T06:45:21;6.65;;;2.55;;
23561;SDS011;11959;49.418;8.728;2022-09-28T06:47:55;5.20;;;2.35;;
23561;SDS011;11959;49.418;8.728;2022-09-28T06:50:26;4.18;;;2.80;;
23561;SDS011;11959;49.418;8.728;2022-09-28T06:53:02;6.85;;;2.72;;
23561;SDS011;11959;49.418;8.728;2022-09-28T06:55:30;8.18;;;2.88;;
23561;SDS011;11959;49.418;8.728;2022-09-28T06:57:57;5.45;;;2.75;;
23561;SDS011;11959;49.418;8.728;2022-09-28T07:00:28;5.97;;;3.03;;
23561;SDS011;11959;49.418;8.728;2022-09-28T07:02:56;5.90;;;3.23;;
23561;SDS011;11959;49.418;8.728;2022-09-28T07:05:22;9.07;;;4.00;;
23561;SDS011;11959;49.418;8.728;2022-09-28T07:07:56;5.82;;;3.20;;
23561;SDS011;11959;49.418;8.728;2022-09-28T07:10:26;6.80;;;3.17;;
23561;SDS011;11959;49.418;8.728;2022-09-28T07:12:53;6.45;;;3.70;;
23561;SDS011;11959;49.418;8.728;2022-09-28T07:15:21;6.75;;;3.22;;
23561;SDS011;11959;49.418;8.728;2022-09-28T07:17:47;7.07;;;2.97;;
23561;SDS011;11959;49.418;8.728;2022-09-28T07:20:13;5.85;;;2.97;;
23561;SDS011;11959;49.418;8.728;2022-09-28T07:22:39;4.07;;;2.53;;
23561;SDS011;11959;49.418;8.728;2022-09-28T07:25:05;6.20;;;2.90;;
23561;SDS011;11959;49.418;8.728;2022-09-28T07:27:31;5.28;;;2.97;;
23561;SDS011;11959;49.418;8.728;2022-09-28T07:29:57;6.38;;;4.22;;
23561;SDS011;11959;49.418;8.728;2022-09-28T07:32:23;6.28;;;2.88;;
23561;SDS011;11959;49.418;8.728;2022-09-28T07:34:51;7.13;;;2.70;;
23561;SDS011;11959;49.418;8.728;2022-09-28T07:37:17;4.15;;;2.50;;
23561;SDS011;11959;49.418;8.728;2022-09-28T07:39:46;7.10;;;2.40;;
23561;SDS011;11959;49.418;8.728;2022-09-28T07:42:30;5.55;;;2.50;;
23561;SDS011;11959;49.418;8.728;2022-09-28T07:44:56;5.20;;;2.50;;
23561;SDS011;11959;49.418;8.728;2022-09-28T07:47:22;8.60;;;3.05;;
23561;SDS011;11959;49.418;8.728;2022-09-28T07:49:54;5.10;;;2.38;;
23561;SDS011;11959;49.418;8.728;2022-09-28T07:52:23;8.00;;;2.90;;
23561;SDS011;11959;49.418;8.728;2022-09-28T07:54:56;6.15;;;2.90;;
23561;SDS011;11959;49.418;8.728;2022-09-28T07:57:22;6.22;;;2.80;;
23561;SDS011;11959;49.418;8.728;2022-09-28T07:59:48;6.95;;;2.40;;
23561;SDS011;11959;49.418;8.728;2022-09-28T08:02:15;6.13;;;2.58;;
23561;SDS011;11959;49.418;8.728;2022-09-28T08:04:47;8.10;;;2.90;;
23561;SDS011;11959;49.418;8.728;2022-09-28T08:07:13;9.88;;;2.67;;
23561;SDS011;11959;49.418;8.728;2022-09-28T08:09:41;5.68;;;2.72;;
23561;SDS011;11959;49.418;8.728;2022-09-28T08:12:07;5.13;;;2.45;;
23561;SDS011;11959;49.418;8.728;2022-09-28T08:14:33;5.85;;;2.40;;
23561;SDS011;11959;49.418;8.728;2022-09-28T08:16:59;4.75;;;2.22;;
23561;SDS011;11959;49.418;8.728;2022-09-28T08:19:25;6.15;;;2.50;;
23561;SDS011;11959;49.418;8.728;2022-09-28T08:22:11;7.43;;;2.20;;
23561;SDS011;11959;49.418;8.728;2022-09-28T08:24:37;3.88;;;2.50;;
23561;SDS011;11959;49.418;8.728;2022-09-28T08:27:02;7.07;;;2.30;;
23561;SDS011;11959;49.418;8.728;2022-09-28T08:29:28;4.97;;;2.03;;
23561;SDS011;11959;49.418;8.728;2022-09-28T08:31:55;5.68;;;1.80;;
23561;SDS011;11959;49.418;8.728;2022-09-28T08:34:23;5.95;;;2.05;;
23561;SDS011;11959;49.418;8.728;2022-09-28T08:36:49;6.40;;;1.70;;
23561;SDS011;11959;49.418;8.728;2022-09-28T08:39:15;3.17;;;1.90;;
23561;SDS011;11959;49.418;8.728;2022-09-28T08:46:49;4.13;;;1.55;;
23561;SDS011;11959;49.418;8.728;2022-09-28T08:49:30;2.85;;;1.70;;
23561;SDS011;11959;49.418;8.728;2022-09-28T08:52:12;3.83;;;2.00;;
23561;SDS011;11959;49.418;8.728;2022-09-28T08:57:32;4.63;;;1.77;;
23561;SDS011;11959;49.418;8.728;2022-09-28T09:00:09;3.63;;;1.40;;
23561;SDS011;11959;49.418;8.728;2022-09-28T09:02:44;4.47;;;2.10;;
23561;SDS011;11959;49.418;8.728;2022-09-28T09:05:12;5.38;;;1.52;;
23561;SDS011;11959;49.418;8.728;2022-09-28T09:21:57;4.05;;;1.67;;
23561;SDS011;11959;49.418;8.728;2022-09-28T09:29:59;5.55;;;2.05;;
23561;SDS011;11959;49.418;8.728;2022-09-28T09:43:39;5.18;;;1.60;;
23561;SDS011;11959;49.418;8.728;2022-09-28T09:46:21;4.30;;;1.55;;
23561;SDS011;11959;49.418;8.728;2022-09-28T09:49:09;4.40;;;1.45;;
23561;SDS011;11959;49.418;8.728;2022-09-28T09:51:54;3.50;;;1.35;;
23561;SDS011;11959;49.418;8.728;2022-09-28T09:57:23;2.75;;;1.13;;
23561;SDS011;11959;49.418;8.728;2022-09-28T09:59:54;3.20;;;1.45;;
23561;SDS011;11959;49.418;8.728;2022-09-28T10:02:23;3.90;;;1.30;;
23561;SDS011;11959;49.418;8.728;2022-09-28T10:04:56;4.03;;;1.33;;
23561;SDS011;11959;49.418;8.728;2022-09-28T10:10:17;3.80;;;1.30;;
23561;SDS011;11959;49.418;8.728;2022-09-28T10:12:48;4.25;;;1.60;;
23561;SDS011;11959;49.418;8.728;2022-09-28T10:15:17;3.58;;;1.15;;
23561;SDS011;11959;49.418;8.728;2022-09-28T10:17:49;5.00;;;1.52;;
23561;SDS011;11959;49.418;8.728;2022-09-28T10:20:15;4.03;;;1.35;;
23561;SDS011;11959;49.418;8.728;2022-09-28T10:22:41;2.85;;;1.23;;
23561;SDS011;11959;49.418;8.728;2022-09-28T10:25:08;2.40;;;1.00;;
23561;SDS011;11959;49.418;8.728;2022-09-28T10:27:37;3.40;;;1.17;;
23561;SDS011;11959;49.418;8.728;2022-09-28T10:32:38;3.53;;;1.40;;
23561;SDS011;11959;49.418;8.728;2022-09-28T10:40:50;5.53;;;1.85;;
23561;SDS011;11959;49.418;8.728;2022-09-28T10:45:58;2.50;;;1.20;;
23561;SDS011;11959;49.418;8.728;2022-09-28T10:48:25;3.90;;;0.90;;
23561;SDS011;11959;49.418;8.728;2022-09-28T10:51:04;4.28;;;1.10;;
23561;SDS011;11959;49.418;8.728;2022-09-28T10:53:31;2.92;;;1.10;;
23561;SDS011;11959;49.418;8.728;2022-09-28T10:56:02;4.28;;;1.30;;
23561;SDS011;11959;49.418;8.728;2022-09-28T10:58:38;2.70;;;1.20;;
23561;SDS011;11959;49.418;8.728;2022-09-28T11:01:09;7.97;;;1.40;;
23561;SDS011;11959;49.418;8.728;2022-09-28T11:03:56;2.08;;;0.93;;
23561;SDS011;11959;49.418;8.728;2022-09-28T11:06:25;3.50;;;1.08;;
23561;SDS011;11959;49.418;8.728;2022-09-28T11:09:02;6.05;;;1.33;;
23561;SDS011;11959;49.418;8.728;2022-09-28T11:11:29;3.47;;;1.10;;
23561;SDS011;11959;49.418;8.728;2022-09-28T11:14:03;2.22;;;0.93;;
23561;SDS011;11959;49.418;8.728;2022-09-28T11:16:41;4.50;;;1.13;;
23561;SDS011;11959;49.418;8.728;2022-09-28T11:21:43;3.30;;;1.15;;
23561;SDS011;11959;49.418;8.728;2022-09-28T11:26:36;3.33;;;1.20;;
23561;SDS011;11959;49.418;8.728;2022-09-28T11:29:20;2.50;;;1.17;;
23561;SDS011;11959;49.418;8.728;2022-09-28T11:32:01;2.63;;;1.00;;
23561;SDS011;11959;49.418;8.728;2022-09-28T11:34:33;4.13;;;1.13;;
23561;SDS011;11959;49.418;8.728;2022-09-28T11:39:36;2.85;;;0.95;;
23561;SDS011;11959;49.418;8.728;2022-09-28T11:45:53;4.20;;;1.10;;
23561;SDS011;11959;49.418;8.728;2022-09-28T11:47:48;2.40;;;0.95;;
23561;SDS011;11959;49.418;8.728;2022-09-28T11:58:41;4.32;;;1.15;;
23561;SDS011;11959;49.418;8.728;2022-09-28T12:01:20;4.03;;;1.15;;
23561;SDS011;11959;49.418;8.728;2022-09-28T12:04:04;2.58;;;1.00;;
23561;SDS011;11959;49.418;8.728;2022-09-28T12:06:39;2.42;;;1.08;;
23561;SDS011;11959;49.418;8.728;2022-09-28T12:09:19;3.13;;;0.90;;
23561;SDS011;11959;49.418;8.728;2022-09-28T12:11:53;3.65;;;1.02;;
23561;SDS011;11959;49.418;8.728;2022-09-28T12:14:23;3.45;;;1.00;;
23561;SDS011;11959;49.418;8.728;2022-09-28T12:16:55;2.00;;;0.70;;
23561;SDS011;11959;49.418;8.728;2022-09-28T12:19:38;2.03;;;1.10;;
23561;SDS011;11959;49.418;8.728;2022-09-28T12:22:31;2.63;;;0.90;;
23561;SDS011;11959;49.418;8.728;2022-09-28T12:25:02;2.22;;;0.80;;
23561;SDS011;11959;49.418;8.728;2022-09-28T12:27:39;2.53;;;0.80;;
23561;SDS011;11959;49.418;8.728;2022-09-28T12:30:16;3.60;;;0.90;;
23561;SDS011;11959;49.418;8.728;2022-09-28T12:32:48;2.30;;;0.73;;
23561;SDS011;11959;49.418;8.728;2022-09-28T13:00:10;2.78;;;0.85;;
23561;SDS011;11959;49.418;8.728;2022-09-28T13:08:13;2.20;;;0.82;;
23561;SDS011;11959;49.418;8.728;2022-09-28T13:19:16;0.88;;;0.60;;
23561;SDS011;11959;49.418;8.728;2022-09-28T13:24:48;2.08;;;0.60;;
23561;SDS011;11959;49.418;8.728;2022-09-28T13:27:22;3.42;;;1.02;;
23561;SDS011;11959;49.418;8.728;2022-09-28T13:29:54;2.10;;;0.73;;
23561;SDS011;11959;49.418;8.728;2022-09-28T13:32:27;2.25;;;0.95;;
23561;SDS011;11959;49.418;8.728;2022-09-28T13:34:55;1.35;;;0.93;;
23561;SDS011;11959;49.418;8.728;2022-09-28T13:37:23;2.58;;;0.73;;
23561;SDS011;11959;49.418;8.728;2022-09-28T13:39:56;1.13;;;0.52;;
23561;SDS011;11959;49.418;8.728;2022-09-28T13:50:15;1.73;;;0.70;;
23561;SDS011;11959;49.418;8.728;2022-09-28T13:59:02;3.63;;;1.10;;
23561;SDS011;11959;49.418;8.728;2022-09-28T14:01:51;3.92;;;0.90;;
23561;SDS011;11959;49.418;8.728;2022-09-28T14:07:54;3.17;;;1.10;;
23561;SDS011;11959;49.418;8.728;2022-09-28T14:12:51;2.22;;;0.82;;
23561;SDS011;11959;49.418;8.728;2022-09-28T14:20:25;3.03;;;1.15;;
23561;SDS011;11959;49.418;8.728;2022-09-28T14:23:10;4.43;;;1.17;;
23561;SDS011;11959;49.418;8.728;2022-09-28T14:25:43;4.40;;;1.15;;
23561;SDS011;11959;49.418;8.728;2022-09-28T14:30:54;3.15;;;1.00;;
23561;SDS011;11959;49.418;8.728;2022-09-28T14:33:29;1.45;;;0.70;;
23561;SDS011;11959;49.418;8.728;2022-09-28T14:36:00;3.35;;;1.23;;
23561;SDS011;11959;49.418;8.728;2022-09-28T14:39:15;2.85;;;1.10;;
23561;SDS011;11959;49.418;8.728;2022-09-28T14:42:16;2.35;;;0.80;;
23561;SDS011;11959;49.418;8.728;2022-09-28T14:47:34;4.60;;;1.00;;
23561;SDS011;11959;49.418;8.728;2022-09-28T14:50:22;1.92;;;1.00;;
23561;SDS011;11959;49.418;8.728;2022-09-28T14:52:51;2.60;;;1.17;;
23561;SDS011;11959;49.418;8.728;2022-09-28T14:55:26;1.55;;;0.90;;
23561;SDS011;11959;49.418;8.728;2022-09-28T14:57:56;4.30;;;1.30;;
23561;SDS011;11959;49.418;8.728;2022-09-28T15:00:24;2.75;;;1.00;;
23561;SDS011;11959;49.418;8.728;2022-09-28T15:02:53;2.35;;;0.90;;
23561;SDS011;11959;49.418;8.728;2022-09-28T15:05:31;3.13;;;1.10;;
23561;SDS011;11959;49.418;8.728;2022-09-28T15:08:05;2.15;;;0.88;;
23561;SDS011;11959;49.418;8.728;2022-09-28T15:10:33;1.45;;;1.13;;
23561;SDS011;11959;49.418;8.728;2022-09-28T15:13:24;2.25;;;0.80;;
23561;SDS011;11959;49.418;8.728;2022-09-28T15:15:51;3.80;;;1.00;;
23561;SDS011;11959;49.418;8.728;2022-09-28T15:18:24;3.75;;;0.90;;
23561;SDS011;11959;49.418;8.728;2022-09-28T15:21:19;1.92;;;0.80;;
23561;SDS011;11959;49.418;8.728;2022-09-28T15:23:45;5.50;;;1.00;;
23561;SDS011;11959;49.418;8.728;2022-09-28T15:26:22;3.13;;;1.00;;
23561;SDS011;11959;49.418;8.728;2022-09-28T15:28:51;2.25;;;1.00;;
23561;SDS011;11959;49.418;8.728;2022-09-28T15:31:19;3.67;;;0.90;;
23561;SDS011;11959;49.418;8.728;2022-09-28T15:33:46;1.58;;;0.70;;
23561;SDS011;11959;49.418;8.728;2022-09-28T15:36:38;2.20;;;1.10;;
23561;SDS011;11959;49.418;8.728;2022-09-28T15:39:28;0.95;;;0.70;;
23561;SDS011;11959;49.418;8.728;2022-09-28T15:41:55;2.85;;;0.90;;
23561;SDS011;11959;49.418;8.728;2022-09-28T15:44:28;1.85;;;0.90;;
23561;SDS011;11959;49.418;8.728;2022-09-28T15:47:09;1.33;;;0.88;;
23561;SDS011;11959;49.418;8.728;2022-09-28T15:49:45;2.08;;;0.80;;
23561;SDS011;11959;49.418;8.728;2022-09-28T15:52:31;2.05;;;0.90;;
23561;SDS011;11959;49.418;8.728;2022-09-28T15:55:27;3.72;;;0.90;;
23561;SDS011;11959;49.418;8.728;2022-09-28T15:58:17;2.72;;;0.90;;
23561;SDS011;11959;49.418;8.728;2022-09-28T16:00:47;1.40;;;0.90;;
23561;SDS011;11959;49.418;8.728;2022-09-28T16:03:21;5.85;;;1.30;;
23561;SDS011;11959;49.418;8.728;2022-09-28T16:08:41;2.45;;;1.05;;
23561;SDS011;11959;49.418;8.728;2022-09-28T16:13:49;3.35;;;0.98;;
23561;SDS011;11959;49.418;8.728;2022-09-28T16:16:17;3.58;;;1.23;;
23561;SDS011;11959;49.418;8.728;2022-09-28T16:18:50;2.05;;;1.10;;
23561;SDS011;11959;49.418;8.728;2022-09-28T16:21:21;2.22;;;1.30;;
23561;SDS011;11959;49.418;8.728;2022-09-28T16:23:55;2.00;;;1.00;;
23561;SDS011;11959;49.418;8.728;2022-09-28T16:26:34;3.58;;;1.30;;
23561;SDS011;11959;49.418;8.728;2022-09-28T16:29:37;2.70;;;1.13;;
23561;SDS011;11959;49.418;8.728;2022-09-28T16:32:28;3.33;;;1.00;;
23561;SDS011;11959;49.418;8.728;2022-09-28T16:37:36;2.60;;;1.20;;
23561;SDS011;11959;49.418;8.728;2022-09-28T16:40:06;2.50;;;1.00;;
23561;SDS011;11959;49.418;8.728;2022-09-28T16:42:33;2.33;;;0.98;;
23561;SDS011;11959;49.418;8.728;2022-09-28T16:45:00;2.20;;;1.20;;
23561;SDS011;11959;49.418;8.728;2022-09-28T16:47:29;4.03;;;1.20;;
23561;SDS011;11959;49.418;8.728;2022-09-28T16:50:09;1.80;;;1.05;;
23561;SDS011;11959;49.418;8.728;2022-09-28T16:52:38;2.42;;;1.15;;
23561;SDS011;11959;49.418;8.728;2022-09-28T16:55:22;2.17;;;1.02;;
23561;SDS011;11959;49.418;8.728;2022-09-28T16:57:47;3.90;;;1.40;;
23561;SDS011;11959;49.418;8.728;2022-09-28T17:00:21;1.98;;;1.00;;
23561;SDS011;11959;49.418;8.728;2022-09-28T17:02:48;1.73;;;1.30;;
23561;SDS011;11959;49.418;8.728;2022-09-28T17:05:17;2.90;;;1.20;;
23561;SDS011;11959;49.418;8.728;2022-09-28T17:07:45;2.65;;;1.33;;
23561;SDS011;11959;49.418;8.728;2022-09-28T17:10:31;3.17;;;1.25;;
23561;SDS011;11959;49.418;8.728;2022-09-28T17:13:00;3.65;;;1.20;;
23561;SDS011;11959;49.418;8.728;2022-09-28T17:15:26;3.00;;;1.70;;
23561;SDS011;11959;49.418;8.728;2022-09-28T17:17:52;2.58;;;1.42;;
23561;SDS011;11959;49.418;8.728;2022-09-28T17:20:20;3.47;;;1.55;;
23561;SDS011;11959;49.418;8.728;2022-09-28T17:22:49;3.58;;;1.35;;
23561;SDS011;11959;49.418;8.728;2022-09-28T17:25:15;3.08;;;1.50;;
23561;SDS011;11959;49.418;8.728;2022-09-28T17:27:42;3.95;;;2.17;;
23561;SDS011;11959;49.418;8.728;2022-09-28T17:30:10;4.28;;;1.90;;
23561;SDS011;11959;49.418;8.728;2022-09-28T17:32:37;4.70;;;1.98;;
23561;SDS011;11959;49.418;8.728;2022-09-28T17:35:04;3.60;;;2.15;;
23561;SDS011;11959;49.418;8.728;2022-09-28T17:37:30;6.60;;;2.60;;
23561;SDS011;11959;49.418;8.728;2022-09-28T17:39:58;4.68;;;2.33;;
23561;SDS011;11959;49.418;8.728;2022-09-28T17:42:24;3.70;;;2.28;;
23561;SDS011;11959;49.418;8.728;2022-09-28T17:44:50;5.10;;;1.90;;
23561;SDS011;11959;49.418;8.728;2022-09-28T17:47:15;4.57;;;1.92;;
23561;SDS011;11959;49.418;8.728;2022-09-28T17:49:42;6.50;;;2.63;;
23561;SDS011;11959;49.418;8.728;2022-09-28T17:52:08;3.75;;;2.00;;
23561;SDS011;11959;49.418;8.728;2022-09-28T17:54:34;4.78;;;2.22;;
23561;SDS011;11959;49.418;8.728;2022-09-28T17:56:59;3.47;;;2.00;;
23561;SDS011;11959;49.418;8.728;2022-09-28T17:59:25;4.40;;;2.10;;
23561;SDS011;11959;49.418;8.728;2022-09-28T18:01:52;6.53;;;2.33;;
23561;SDS011;11959;49.418;8.728;2022-09-28T18:04:17;4.05;;;2.28;;
23561;SDS011;11959;49.418;8.728;2022-09-28T18:06:43;4.55;;;2.08;;
23561;SDS011;11959;49.418;8.728;2022-09-28T18:09:13;4.97;;;2.40;;
23561;SDS011;11959;49.418;8.728;2022-09-28T18:11:40;3.78;;;2.00;;
23561;SDS011;11959;49.418;8.728;2022-09-28T18:14:08;3.55;;;2.00;;
23561;SDS011;11959;49.418;8.728;2022-09-28T18:16:34;4.57;;;3.50;;
23561;SDS011;11959;49.418;8.728;2022-09-28T18:19:00;4.80;;;2.85;;
23561;SDS011;11959;49.418;8.728;2022-09-28T18:21:25;6.65;;;4.82;;
23561;SDS011;11959;49.418;8.728;2022-09-28T18:23:51;4.20;;;3.28;;
23561;SDS011;11959;49.418;8.728;2022-09-28T18:26:17;5.57;;;2.40;;
23561;SDS011;11959;49.418;8.728;2022-09-28T18:28:45;4.10;;;2.55;;